Date,TemperatureHighF,TemperatureAvgF,TemperatureLowF,DewpointHighF,DewpointAvgF,DewpointLowF,HumidityHigh,HumidityAvg,HumidityLow,PressureMaxIn,PressureMinIn,WindSpeedMaxMPH,WindSpeedAvgMPH,GustSpeedMaxMPH,PrecipitationSumIn
2013-1-1,36.0,22.4,9.8,22.0,14.6,7.0,91,73,48,30.68,30.56,6,1,14,0.13
2013-1-2,39.1,25.1,16.7,11.0,8.0,5.0,78,51,28,30.68,30.54,9,3,16,0.04
2013-1-3,29.4,21.0,15.4,9.0,6.8,6.0,65,55,40,30.77,30.55,9,3,19,0.04
2013-1-4,42.8,25.2,11.2,10.0,4.4,-6.0,60,45,13,30.80,30.66,7,1,12,0.00
2013-1-5,51.6,26.8,5.1,14.0,4.1,-5.0,65,43,15,30.87,30.73,2,1,5,0.00
2013-1-6,46.5,29.8,15.0,14.0,9.8,3.0,68,46,21,30.73,30.33,4,1,12,0.00
2013-1-7,41.3,30.0,21.2,18.0,12.7,9.0,67,50,35,30.42,30.27,9,2,14,0.00
2013-1-8,50.3,37.5,26.2,20.0,12.0,4.0,56,36,22,30.52,30.37,8,2,19,0.00
2013-1-9,56.5,38.8,25.2,21.0,18.4,14.0,73,48,19,30.60,30.38,10,1,13,0.00
2013-1-10,43.6,32.2,22.5,28.0,18.9,14.0,85,60,38,30.38,29.98,13,3,24,0.00
2013-1-11,28.0,19.1,4.3,21.0,4.2,-6.0,86,56,26,30.42,30.01,6,1,17,0.00
2013-1-12,26.7,11.7,-1.2,4.0,-2.1,-8.0,74,56,31,30.62,30.41,6,1,13,0.00
2013-1-13,25.0,7.7,-8.3,2.0,-4.5,-14.0,77,60,35,30.69,30.56,7,1,8,0.00
2013-1-14,20.6,11.3,1.8,4.0,-1.0,-9.0,78,59,43,30.79,30.61,4,1,11,0.00
2013-1-15,29.9,16.8,4.9,7.0,-1.3,-9.0,59,46,34,30.96,30.78,12,2,23,0.00
2013-1-16,41.8,30.4,19.9,17.0,12.8,7.0,60,49,36,30.96,30.73,8,2,17,0.01
2013-1-17,40.7,31.3,26.0,17.0,13.2,10.0,57,48,36,30.78,30.66,12,2,22,0.01
2013-1-18,50.5,33.5,21.7,20.0,15.9,12.0,67,51,28,30.76,30.61,5,1,8,0.00
2013-1-19,48.6,34.8,26.7,19.0,15.5,9.0,64,47,24,30.70,30.61,8,1,15,0.00
2013-1-20,55.1,36.0,21.8,21.0,9.5,-4.0,57,38,9,30.66,30.50,3,1,8,0.00
2013-1-21,47.9,37.4,31.4,15.0,10.6,6.0,50,35,19,30.58,30.50,7,2,15,0.00
2013-1-22,60.3,39.7,23.7,21.0,11.8,-2.0,62,37,8,30.66,30.55,5,1,8,0.00
2013-1-23,56.6,38.7,24.0,28.0,19.9,13.0,75,51,20,30.66,30.56,4,1,6,0.00
2013-1-24,47.4,37.5,31.7,38.0,31.9,26.0,94,81,46,30.61,30.48,5,0,12,0.09
2013-1-25,50.1,40.9,34.5,45.0,38.2,33.0,95,90,75,30.58,30.36,2,0,4,0.28
2013-1-26,43.1,40.7,38.3,42.0,39.3,37.0,95,95,94,30.36,30.09,6,1,13,1.14
2013-1-27,41.6,39.0,35.5,40.0,37.5,33.0,95,94,90,30.24,30.13,8,3,16,0.13
2013-1-28,35.3,28.4,18.1,34.0,26.5,15.0,94,92,87,30.28,30.02,7,1,25,0.20
2013-1-29,28.4,16.2,1.4,22.0,12.3,-2.0,92,85,73,30.75,30.28,1,0,12,0.00
2013-1-30,39.1,22.0,5.8,25.0,15.4,2.0,90,77,52,30.90,30.76,3,0,7,0.42
2013-1-31,49.7,32.5,16.8,23.0,20.1,14.0,91,65,31,30.79,30.60,4,1,14,0.30